Time;durP1;ratioP1;P1;durP2;ratioP2;P2;SDS_P1;SDS_P2;PMS_P1;PMS_P2;Temp;Humidity;BMP_temperature;BMP_pressure;BME280_temperature;BME280_humidity;BME280_pressure;Samples;Min_cycle;Max_cycle;Signal;HPM_P1;HPM_P2
2024/04/23 00:01:30;;;;;;;1.60;1.50;;;19.00;52.30;;;;;;5282729;26;20009;-66
2024/04/23 00:03:55;;;;;;;1.80;1.10;;;19.00;52.10;;;;;;5279808;26;20480;-66
2024/04/23 00:06:21;;;;;;;1.48;1.30;;;19.00;52.20;;;;;;5284146;26;20005;-64
2024/04/23 00:08:46;;;;;;;1.88;1.10;;;19.00;52.20;;;;;;5280033;26;20639;-66
2024/04/23 00:11:12;;;;;;;2.10;1.08;;;19.00;52.20;;;;;;5283293;26;20014;-66
2024/04/23 00:13:37;;;;;;;1.35;1.25;;;18.90;52.00;;;;;;5281717;26;20465;-66
2024/04/23 00:16:03;;;;;;;1.20;1.10;;;18.90;52.10;;;;;;5274833;26;20085;-66
2024/04/23 00:18:28;;;;;;;1.30;1.20;;;18.90;52.10;;;;;;5270237;26;20018;-65
2024/04/23 00:20:55;;;;;;;1.65;1.30;;;18.90;52.10;;;;;;5274987;26;19998;-66
2024/04/23 00:23:21;;;;;;;1.50;1.30;;;18.90;52.00;;;;;;5282595;26;20016;-66
2024/04/23 00:25:47;;;;;;;1.25;1.15;;;18.90;52.00;;;;;;5277015;26;20017;-64
2024/04/23 00:28:13;;;;;;;1.55;1.20;;;18.90;52.00;;;;;;5282860;26;20006;-66
2024/04/23 00:30:38;;;;;;;1.50;1.38;;;18.90;52.00;;;;;;5277380;26;20017;-66
2024/04/23 00:33:07;;;;;;;1.60;1.08;;;18.90;52.00;;;;;;5275056;26;20080;-66
2024/04/23 00:35:33;;;;;;;1.88;1.20;;;18.90;52.10;;;;;;5280408;26;20022;-66
2024/04/23 00:37:58;;;;;;;1.77;1.40;;;18.90;52.10;;;;;;5278901;26;20020;-66
2024/04/23 00:40:24;;;;;;;1.67;1.15;;;18.90;52.00;;;;;;5273939;26;20006;-67
2024/04/23 00:42:49;;;;;;;1.13;1.02;;;18.90;52.10;;;;;;5289251;26;20038;-66
2024/04/23 00:45:18;;;;;;;1.50;1.40;;;18.90;52.00;;;;;;5286236;26;20030;-66
2024/04/23 00:47:43;;;;;;;1.20;1.10;;;18.90;51.90;;;;;;5281964;26;20021;-66
2024/04/23 00:50:10;;;;;;;1.70;1.08;;;18.90;52.00;;;;;;5272066;26;20038;-67
2024/04/23 00:52:35;;;;;;;1.27;1.10;;;18.90;51.90;;;;;;5278291;26;20022;-66
2024/04/23 00:55:01;;;;;;;1.45;1.33;;;18.80;52.00;;;;;;5287675;26;20009;-67
2024/04/23 00:57:27;;;;;;;1.40;1.30;;;18.90;52.00;;;;;;5269798;26;20417;-66
2024/04/23 00:59:52;;;;;;;1.73;1.40;;;18.80;52.00;;;;;;5246550;26;20028;-66
2024/04/23 01:02:18;;;;;;;1.40;1.25;;;18.90;52.00;;;;;;5249026;26;20713;-66
2024/04/23 01:04:43;;;;;;;1.38;1.10;;;18.80;51.70;;;;;;5233070;26;20018;-66
2024/04/23 01:07:09;;;;;;;1.27;1.13;;;18.90;51.70;;;;;;5279206;26;20080;-66
2024/04/23 01:09:35;;;;;;;2.00;1.42;;;18.90;51.40;;;;;;5263503;26;20007;-65
2024/04/23 01:12:01;;;;;;;2.30;1.40;;;18.90;51.30;;;;;;5263634;26;20014;-66
2024/04/23 01:14:29;;;;;;;1.30;1.20;;;18.80;51.00;;;;;;5260462;26;20080;-66
2024/04/23 01:16:56;;;;;;;1.60;1.23;;;18.80;51.00;;;;;;5270782;26;20009;-66
2024/04/23 01:19:38;;;;;;;1.45;1.20;;;18.80;51.20;;;;;;5249274;26;20002;-67
2024/04/23 01:22:11;;;;;;;2.33;1.45;;;18.80;51.20;;;;;;5257258;26;20103;-66
2024/04/23 01:24:59;;;;;;;1.67;1.15;;;18.80;51.30;;;;;;5268927;26;20036;-66
2024/04/23 01:27:26;;;;;;;2.53;1.30;;;18.70;51.40;;;;;;5275278;26;20432;-66
2024/04/23 01:29:53;;;;;;;1.38;1.27;;;18.70;51.50;;;;;;5284185;26;20006;-66
2024/04/23 01:32:21;;;;;;;1.60;1.33;;;18.70;51.50;;;;;;5277259;26;20013;-66
2024/04/23 01:34:47;;;;;;;1.45;1.30;;;18.70;51.60;;;;;;5270688;26;20073;-66
2024/04/23 01:37:13;;;;;;;1.88;1.30;;;18.60;51.70;;;;;;5278914;26;20005;-66
2024/04/23 01:39:39;;;;;;;1.35;1.10;;;18.60;51.70;;;;;;5281483;26;20017;-66
2024/04/23 01:42:05;;;;;;;1.35;1.20;;;18.60;51.60;;;;;;5280607;26;20468;-66
2024/04/23 01:44:32;;;;;;;2.72;1.40;;;18.60;51.50;;;;;;5277961;26;20017;-66
2024/04/23 01:46:57;;;;;;;1.40;1.30;;;18.70;51.50;;;;;;5277742;26;20018;-66
2024/04/23 01:49:23;;;;;;;2.80;1.30;;;18.70;51.60;;;;;;5272968;26;20400;-65
2024/04/23 01:51:49;;;;;;;1.83;1.33;;;18.80;51.50;;;;;;5271012;26;20053;-66
2024/04/23 01:54:15;;;;;;;1.60;1.27;;;18.90;51.20;;;;;;5292300;26;20094;-65
2024/04/23 01:56:40;;;;;;;2.92;1.50;;;19.00;51.20;;;;;;5280784;26;20010;-66
2024/04/23 01:59:06;;;;;;;1.20;1.10;;;19.10;51.10;;;;;;5276763;26;20485;-68
2024/04/23 02:01:36;;;;;;;1.35;1.05;;;19.20;51.10;;;;;;5265725;26;20025;-67
2024/04/23 02:04:02;;;;;;;1.90;1.25;;;19.30;50.90;;;;;;5249381;26;20005;-66
2024/04/23 02:06:28;;;;;;;1.38;1.27;;;19.40;50.90;;;;;;5214193;27;20021;-68
2024/04/23 02:08:54;;;;;;;1.42;1.20;;;19.40;50.50;;;;;;5259887;26;20006;-68
2024/04/23 02:11:20;;;;;;;1.70;1.20;;;19.50;50.60;;;;;;5248896;26;20007;-66
2024/04/23 02:13:46;;;;;;;1.67;1.30;;;19.50;50.50;;;;;;5258193;26;20077;-67
2024/04/23 02:16:11;;;;;;;1.25;1.15;;;19.50;50.50;;;;;;5247797;26;20010;-67
2024/04/23 02:18:37;;;;;;;1.52;1.15;;;19.50;50.40;;;;;;5253570;26;20012;-68
2024/04/23 02:21:03;;;;;;;1.23;1.00;;;19.50;50.50;;;;;;5199711;26;20001;-68
2024/04/23 02:23:28;;;;;;;2.55;0.90;;;19.60;50.50;;;;;;5228682;26;20080;-69
2024/04/23 02:25:53;;;;;;;1.92;1.10;;;19.60;50.60;;;;;;5175555;26;20021;-67
2024/04/23 02:28:19;;;;;;;1.35;1.05;;;19.60;50.50;;;;;;5237658;26;20015;-68
2024/04/23 02:30:44;;;;;;;1.30;1.05;;;19.60;50.60;;;;;;5271028;26;20497;-68
2024/04/23 02:33:11;;;;;;;1.65;1.23;;;19.50;50.50;;;;;;5246179;26;20015;-68
2024/04/23 02:35:38;;;;;;;1.23;1.00;;;19.60;50.60;;;;;;5270049;26;20497;-68
2024/04/23 02:38:04;;;;;;;0.88;0.77;;;19.50;50.50;;;;;;5273762;26;20006;-67
2024/04/23 02:40:29;;;;;;;1.17;1.00;;;19.50;50.70;;;;;;5284348;26;20464;-69
2024/04/23 02:42:54;;;;;;;4.90;1.00;;;19.50;50.70;;;;;;5274154;26;20636;-68
2024/04/23 02:45:20;;;;;;;2.22;1.08;;;19.50;50.80;;;;;;5285630;26;20369;-66
2024/04/23 02:47:45;;;;;;;1.08;0.80;;;19.40;50.70;;;;;;5268088;26;20465;-68
2024/04/23 02:50:11;;;;;;;0.80;0.80;;;19.40;50.60;;;;;;5283714;26;20021;-68
2024/04/23 02:52:36;;;;;;;1.60;0.98;;;19.40;51.00;;;;;;5269468;26;20439;-68
2024/04/23 02:55:02;;;;;;;1.20;0.90;;;19.40;51.00;;;;;;5260663;26;19998;-67
2024/04/23 02:57:27;;;;;;;0.73;0.73;;;19.40;51.10;;;;;;5288796;26;20005;-68
2024/04/23 02:59:53;;;;;;;2.45;1.15;;;19.30;51.10;;;;;;5284273;26;19998;-68
2024/04/23 03:02:18;;;;;;;1.45;1.20;;;19.30;51.20;;;;;;5238864;26;20051;-68
2024/04/23 03:04:44;;;;;;;1.27;0.93;;;19.30;51.30;;;;;;5239655;26;19999;-67
2024/04/23 03:07:10;;;;;;;1.40;0.80;;;19.30;51.20;;;;;;5266553;26;20378;-68
2024/04/23 03:09:36;;;;;;;1.23;0.73;;;19.30;51.00;;;;;;5269974;26;20107;-68
2024/04/23 03:12:01;;;;;;;1.40;1.00;;;19.30;51.00;;;;;;5279450;26;20002;-69
2024/04/23 03:14:27;;;;;;;1.63;1.20;;;19.30;51.00;;;;;;5286118;26;20324;-67
2024/04/23 03:16:52;;;;;;;1.15;1.02;;;19.20;51.00;;;;;;5273291;26;20277;-66
2024/04/23 03:19:18;;;;;;;1.13;1.00;;;19.20;50.80;;;;;;5258235;26;20469;-70
2024/04/23 03:21:51;;;;;;;1.27;1.08;;;19.20;50.70;;;;;;5265590;26;20002;-67
2024/04/23 03:24:17;;;;;;;1.00;0.88;;;19.20;50.80;;;;;;5266812;26;20016;-68
2024/04/23 03:26:42;;;;;;;1.25;1.10;;;19.20;50.70;;;;;;5278470;26;20307;-69
2024/04/23 03:29:08;;;;;;;0.95;0.88;;;19.20;50.60;;;;;;5273226;26;20021;-69
2024/04/23 03:31:33;;;;;;;0.82;0.82;;;19.20;50.70;;;;;;5252944;26;20389;-68
2024/04/23 03:33:59;;;;;;;1.13;0.98;;;19.20;50.60;;;;;;5279525;26;20006;-68
2024/04/23 03:36:24;;;;;;;1.20;1.10;;;19.20;51.00;;;;;;5270017;26;20377;-66
2024/04/23 03:38:50;;;;;;;1.13;0.90;;;19.20;51.10;;;;;;5268535;26;20030;-69
2024/04/23 03:41:15;;;;;;;1.20;0.98;;;19.20;51.20;;;;;;5277712;26;20069;-64
2024/04/23 03:43:41;;;;;;;1.13;0.98;;;19.10;51.20;;;;;;5262197;26;19998;-67
2024/04/23 03:46:06;;;;;;;1.45;1.27;;;19.20;51.30;;;;;;5283992;26;20084;-68
2024/04/23 03:48:32;;;;;;;1.98;0.93;;;19.10;51.30;;;;;;5286922;26;20030;-67
2024/04/23 03:50:57;;;;;;;1.10;1.00;;;19.10;51.30;;;;;;5279658;26;20282;-67
2024/04/23 03:53:23;;;;;;;1.15;1.00;;;19.10;51.40;;;;;;5275094;26;20334;-68
2024/04/23 03:55:48;;;;;;;2.00;1.00;;;19.10;51.20;;;;;;5278299;26;19994;-67
2024/04/23 03:58:13;;;;;;;1.15;1.05;;;19.10;51.20;;;;;;5280227;26;20742;-65
2024/04/23 04:00:39;;;;;;;0.82;0.80;;;19.10;51.10;;;;;;5271798;26;20031;-68
2024/04/23 04:06:08;;;;;;;1.20;0.90;;;19.10;51.20;;;;;;5277889;26;20143;-69
2024/04/23 04:08:34;;;;;;;1.13;1.02;;;19.10;51.20;;;;;;5282225;26;20546;-68
2024/04/23 04:11:00;;;;;;;1.40;1.00;;;19.10;51.20;;;;;;5279040;26;20002;-68
2024/04/23 04:13:25;;;;;;;0.95;0.80;;;19.10;51.30;;;;;;5291028;26;20067;-68
2024/04/23 04:15:51;;;;;;;0.95;0.90;;;19.10;51.20;;;;;;5265974;26;20013;-67
2024/04/23 04:18:17;;;;;;;1.48;1.10;;;19.10;51.10;;;;;;5280885;26;20014;-66
2024/04/23 04:20:42;;;;;;;1.70;0.90;;;19.10;51.20;;;;;;5272286;26;20739;-67
2024/04/23 04:23:08;;;;;;;1.02;0.73;;;19.10;51.20;;;;;;5275280;26;20010;-65
2024/04/23 04:25:34;;;;;;;1.38;1.20;;;19.10;51.00;;;;;;5272584;26;20367;-68
2024/04/23 04:27:59;;;;;;;1.35;1.00;;;19.10;51.20;;;;;;5260727;26;20005;-67
2024/04/23 04:30:25;;;;;;;1.58;1.17;;;19.10;51.20;;;;;;5269043;26;20016;-64
2024/04/23 04:32:50;;;;;;;1.33;1.10;;;19.20;51.00;;;;;;5278974;26;20003;-67
2024/04/23 04:35:16;;;;;;;1.20;1.00;;;19.20;51.10;;;;;;5271384;26;20016;-67
2024/04/23 04:37:41;;;;;;;2.30;0.77;;;19.20;50.80;;;;;;5271094;26;20014;-67
2024/04/23 04:40:07;;;;;;;1.10;0.90;;;19.30;51.40;;;;;;5277293;26;20017;-63
2024/04/23 04:42:33;;;;;;;1.10;0.80;;;19.30;50.60;;;;;;5284871;26;20013;-63
2024/04/23 04:44:58;;;;;;;1.00;0.90;;;19.40;50.60;;;;;;5279143;26;20095;-64
2024/04/23 04:47:24;;;;;;;1.90;0.90;;;19.40;50.50;;;;;;5275370;26;19997;-67
2024/04/23 04:49:49;;;;;;;0.90;0.77;;;19.40;50.30;;;;;;5288098;26;20485;-68
2024/04/23 04:52:15;;;;;;;3.10;0.95;;;19.50;50.40;;;;;;5282209;26;19998;-65
2024/04/23 04:54:40;;;;;;;0.90;0.70;;;19.50;50.30;;;;;;5274033;26;20381;-67
2024/04/23 04:57:06;;;;;;;0.55;0.55;;;19.50;50.30;;;;;;5281248;26;20448;-65
2024/04/23 04:59:31;;;;;;;1.42;0.90;;;19.50;50.30;;;;;;5278215;26;20006;-64
2024/04/23 05:01:57;;;;;;;1.40;0.98;;;19.50;50.00;;;;;;5272964;26;20031;-69
2024/04/23 05:04:22;;;;;;;1.05;0.93;;;19.50;49.90;;;;;;5264965;26;19999;-69
2024/04/23 05:06:48;;;;;;;1.42;1.00;;;19.50;49.60;;;;;;5273182;26;20002;-69
2024/04/23 05:09:13;;;;;;;2.97;1.13;;;19.50;50.00;;;;;;5287228;26;20457;-69
2024/04/23 05:11:41;;;;;;;1.23;0.90;;;19.50;50.00;;;;;;5289526;26;20124;-70
2024/04/23 05:14:07;;;;;;;2.20;1.00;;;19.50;49.50;;;;;;5262028;26;20008;-70
2024/04/23 05:16:32;;;;;;;1.05;0.93;;;19.50;49.50;;;;;;5218522;26;20402;-68
2024/04/23 05:18:58;;;;;;;1.30;1.00;;;19.50;49.70;;;;;;5222946;26;20006;-69
2024/04/23 05:21:23;;;;;;;1.60;1.30;;;19.50;49.90;;;;;;5211244;26;20037;-69
2024/04/23 05:23:49;;;;;;;4.07;1.52;;;19.50;49.80;;;;;;5211425;26;20014;-68
2024/04/23 05:26:15;;;;;;;2.80;1.55;;;19.50;50.00;;;;;;5250218;26;20757;-69
2024/04/23 05:28:40;;;;;;;3.60;1.60;;;19.50;50.10;;;;;;5269503;26;20465;-70
2024/04/23 05:33:50;;;;;;;4.40;2.75;;;19.60;50.40;;;;;;5261320;26;21055;-68
2024/04/23 05:36:17;;;;;;;3.15;2.45;;;19.50;50.60;;;;;;5265042;26;20017;-70
2024/04/23 05:38:43;;;;;;;3.63;2.88;;;19.50;50.70;;;;;;5276536;26;20134;-70
2024/04/23 05:41:08;;;;;;;4.90;3.10;;;19.50;50.60;;;;;;5280865;26;20027;-71
2024/04/23 05:43:34;;;;;;;8.60;3.90;;;19.50;50.80;;;;;;5282983;26;20005;-68
2024/04/23 05:45:59;;;;;;;8.55;4.38;;;19.50;50.70;;;;;;5255431;26;20009;-68
2024/04/23 05:49:02;;;;;;;7.30;3.75;;;19.50;50.80;;;;;;5290009;26;20532;-70
2024/04/23 05:52:06;;;;;;;7.63;3.80;;;19.50;50.80;;;;;;5267150;26;20006;-67
2024/04/23 05:55:09;;;;;;;7.70;4.35;;;19.40;51.10;;;;;;5271405;26;19998;-67
2024/04/23 05:57:35;;;;;;;6.93;4.40;;;19.50;51.40;;;;;;5267598;26;20375;-67
2024/04/23 06:00:01;;;;;;;8.35;5.18;;;19.50;51.40;;;;;;5279815;26;20005;-67
2024/04/23 06:02:26;;;;;;;6.97;4.82;;;19.50;51.90;;;;;;5277544;26;20075;-67
2024/04/23 06:04:52;;;;;;;8.68;5.68;;;19.50;51.90;;;;;;5286655;26;20010;-69
2024/04/23 06:07:17;;;;;;;10.65;5.70;;;19.50;51.70;;;;;;5282619;26;20029;-70
2024/04/23 06:09:43;;;;;;;16.13;7.03;;;19.40;52.00;;;;;;5275600;26;20102;-70
2024/04/23 06:12:08;;;;;;;8.07;5.53;;;19.40;52.00;;;;;;5279399;26;20002;-70
2024/04/23 06:14:40;;;;;;;9.50;5.68;;;19.40;51.90;;;;;;5287038;26;20002;-70
2024/04/23 06:17:19;;;;;;;10.60;5.55;;;19.40;52.60;;;;;;5254935;26;20451;-69
2024/04/23 06:19:49;;;;;;;7.75;5.45;;;19.30;52.00;;;;;;5267582;26;20010;-70
2024/04/23 06:22:16;;;;;;;7.43;4.53;;;19.30;51.90;;;;;;5282793;26;20006;-66
2024/04/23 06:24:41;;;;;;;6.55;4.60;;;19.30;52.00;;;;;;5287882;26;20037;-69
2024/04/23 06:27:07;;;;;;;7.95;5.03;;;19.30;52.00;;;;;;5277805;26;20350;-68
2024/04/23 06:29:32;;;;;;;7.65;4.57;;;19.20;52.10;;;;;;5283085;26;20020;-70
2024/04/23 06:31:58;;;;;;;7.85;4.57;;;19.20;52.10;;;;;;5269564;26;20007;-70
2024/04/23 06:34:23;;;;;;;11.73;4.90;;;19.20;52.10;;;;;;5265145;26;20051;-68
2024/04/23 06:36:49;;;;;;;7.13;4.70;;;19.20;52.20;;;;;;5266437;26;20511;-66
2024/04/23 06:39:14;;;;;;;6.80;4.53;;;19.10;52.20;;;;;;5269286;26;20002;-69
2024/04/23 06:41:40;;;;;;;7.93;4.15;;;19.10;52.90;;;;;;5268384;26;20006;-70
2024/04/23 06:44:05;;;;;;;8.60;4.57;;;19.10;52.70;;;;;;5268763;26;20014;-70
2024/04/23 06:46:31;;;;;;;6.43;4.47;;;19.10;52.50;;;;;;5267248;26;20003;-70
2024/04/23 06:48:56;;;;;;;8.20;4.22;;;19.10;52.60;;;;;;5268951;26;20003;-69
2024/04/23 06:51:22;;;;;;;7.20;4.25;;;19.00;52.50;;;;;;5255571;26;20549;-68
2024/04/23 06:53:47;;;;;;;10.65;6.05;;;19.00;52.80;;;;;;5259926;26;20352;-69
2024/04/23 06:56:13;;;;;;;12.38;6.50;;;19.00;52.70;;;;;;5246989;26;20014;-69
2024/04/23 06:58:38;;;;;;;13.40;7.70;;;19.00;52.80;;;;;;5250984;26;20033;-68
2024/04/23 07:01:04;;;;;;;12.70;7.32;;;19.10;52.90;;;;;;5252068;26;20063;-69
2024/04/23 07:03:29;;;;;;;16.77;8.20;;;19.10;53.10;;;;;;5238865;26;20009;-69
2024/04/23 07:05:55;;;;;;;20.45;9.15;;;19.10;53.20;;;;;;5221761;26;20014;-69
2024/04/23 07:08:20;;;;;;;14.82;8.55;;;19.10;53.10;;;;;;5232472;26;20017;-70
2024/04/23 07:10:45;;;;;;;14.48;7.55;;;19.10;53.10;;;;;;5248646;26;20098;-69
2024/04/23 07:13:11;;;;;;;11.05;7.85;;;19.10;53.10;;;;;;5233214;26;20460;-69
2024/04/23 07:15:36;;;;;;;12.52;7.15;;;19.10;53.00;;;;;;5226766;26;20010;-69
2024/04/23 07:18:02;;;;;;;14.70;7.53;;;19.10;53.00;;;;;;5208123;26;19997;-69
2024/04/23 07:20:27;;;;;;;16.42;7.93;;;19.10;53.00;;;;;;5224433;26;20370;-69
2024/04/23 07:22:53;;;;;;;15.15;8.15;;;19.20;53.00;;;;;;5224424;26;20006;-69
2024/04/23 07:25:18;;;;;;;13.88;7.90;;;19.20;52.90;;;;;;5245209;26;20018;-69
2024/04/23 07:27:44;;;;;;;13.55;6.95;;;19.20;53.50;;;;;;5249337;26;20006;-69
2024/04/23 07:30:10;;;;;;;14.00;6.78;;;19.20;52.80;;;;;;5226047;26;20060;-70
2024/04/23 07:32:35;;;;;;;14.27;7.13;;;19.30;52.80;;;;;;5241661;26;20619;-68
2024/04/23 07:35:00;;;;;;;12.32;7.05;;;19.30;52.70;;;;;;5253141;26;20082;-68
2024/04/23 07:37:26;;;;;;;11.50;6.38;;;19.30;52.70;;;;;;5238997;26;20003;-69
2024/04/23 07:39:51;;;;;;;10.85;5.70;;;19.30;52.60;;;;;;5244850;26;20081;-70
2024/04/23 07:42:17;;;;;;;12.63;7.28;;;19.30;52.50;;;;;;5254965;26;20425;-68
2024/04/23 07:44:43;;;;;;;10.85;5.30;;;19.40;52.50;;;;;;5245403;26;20025;-68
2024/04/23 07:47:08;;;;;;;9.75;6.10;;;19.40;52.40;;;;;;5245544;26;20424;-68
2024/04/23 07:49:34;;;;;;;9.20;5.43;;;19.40;52.40;;;;;;5242096;26;20450;-68
2024/04/23 07:51:59;;;;;;;9.85;5.45;;;19.40;52.30;;;;;;5235717;26;20014;-68
2024/04/23 07:54:25;;;;;;;11.40;5.00;;;19.40;52.10;;;;;;5227877;26;20017;-68
2024/04/23 07:56:50;;;;;;;10.38;4.53;;;19.40;52.20;;;;;;5263735;26;20006;-68
2024/04/23 07:59:17;;;;;;;12.90;4.80;;;19.40;52.10;;;;;;5230899;26;20016;-67
2024/04/23 08:01:42;;;;;;;11.30;4.82;;;19.40;52.20;;;;;;5260572;26;20109;-69
2024/04/23 08:04:08;;;;;;;9.30;4.40;;;19.50;52.20;;;;;;5246929;26;20010;-68
2024/04/23 08:06:33;;;;;;;10.73;5.20;;;19.50;52.10;;;;;;5236378;26;20062;-68
2024/04/23 08:08:59;;;;;;;8.98;4.82;;;19.50;52.10;;;;;;5251093;26;20007;-68
2024/04/23 08:11:25;;;;;;;14.02;5.35;;;19.50;52.10;;;;;;5233000;26;20006;-69
2024/04/23 08:13:50;;;;;;;8.10;4.25;;;19.60;52.00;;;;;;5215237;26;20019;-69
2024/04/23 08:16:16;;;;;;;9.30;4.32;;;19.60;52.00;;;;;;5248395;26;20035;-69
2024/04/23 08:18:41;;;;;;;8.98;4.10;;;19.60;51.90;;;;;;5227401;26;20013;-68
2024/04/23 08:21:08;;;;;;;7.03;3.83;;;19.60;52.00;;;;;;5216542;26;20054;-69
2024/04/23 08:23:34;;;;;;;7.15;3.70;;;19.60;51.90;;;;;;5236128;26;20002;-70
2024/04/23 08:26:07;;;;;;;5.80;3.22;;;19.60;52.00;;;;;;5227557;26;20021;-68
2024/04/23 08:28:33;;;;;;;9.07;4.10;;;19.60;51.80;;;;;;5223191;26;20379;-69
2024/04/23 08:30:59;;;;;;;7.50;3.70;;;19.60;51.70;;;;;;5215209;26;20054;-69
2024/04/23 08:33:24;;;;;;;5.30;3.45;;;19.60;51.70;;;;;;5264749;26;20002;-69
2024/04/23 08:35:50;;;;;;;7.50;3.38;;;19.50;51.80;;;;;;5241739;26;20027;-69
2024/04/23 08:38:15;;;;;;;10.35;4.13;;;19.60;51.80;;;;;;5242083;26;20435;-68
2024/04/23 08:40:40;;;;;;;7.65;2.90;;;19.60;52.30;;;;;;5225772;26;20010;-69
2024/04/23 08:43:17;;;;;;;7.63;3.35;;;19.60;51.70;;;;;;5255741;26;20021;-69
2024/04/23 08:45:43;;;;;;;8.32;3.72;;;19.50;51.70;;;;;;5237111;26;20011;-69
2024/04/23 08:48:09;;;;;;;4.85;3.05;;;19.50;51.70;;;;;;5225820;26;20029;-68
2024/04/23 08:50:35;;;;;;;4.47;3.13;;;19.50;51.80;;;;;;5245558;26;19999;-66
2024/04/23 08:53:02;;;;;;;6.95;3.08;;;19.50;51.90;;;;;;5243607;26;20073;-68
2024/04/23 08:55:29;;;;;;;10.90;3.10;;;19.50;51.80;;;;;;5255361;26;20015;-68
2024/04/23 08:57:54;;;;;;;5.18;2.72;;;19.40;51.90;;;;;;5259252;26;20006;-69
2024/04/23 09:00:20;;;;;;;7.07;3.30;;;19.40;51.90;;;;;;5247723;26;20057;-64
2024/04/23 09:02:47;;;;;;;5.10;2.63;;;19.30;52.00;;;;;;5253931;26;20006;-68
2024/04/23 09:05:14;;;;;;;4.57;2.95;;;19.40;52.20;;;;;;5245453;26;20005;-69
2024/04/23 09:07:39;;;;;;;6.30;2.55;;;19.30;52.10;;;;;;5253937;26;20003;-69
2024/04/23 09:10:07;;;;;;;4.30;2.75;;;19.30;52.20;;;;;;5256070;26;20087;-64
2024/04/23 09:12:33;;;;;;;7.65;2.80;;;19.30;52.30;;;;;;5252515;26;20007;-68
2024/04/23 09:14:58;;;;;;;7.10;3.17;;;19.20;52.30;;;;;;5254158;26;20021;-68
2024/04/23 09:17:24;;;;;;;4.30;2.42;;;19.20;52.30;;;;;;5253675;26;20021;-68
2024/04/23 09:19:50;;;;;;;5.28;2.63;;;19.20;52.30;;;;;;5249524;26;20380;-68
2024/04/23 09:22:16;;;;;;;5.70;2.88;;;19.20;52.40;;;;;;5258790;26;20513;-65
2024/04/23 09:24:41;;;;;;;5.15;2.33;;;19.20;52.40;;;;;;5259180;26;20013;-69
2024/04/23 09:27:07;;;;;;;5.88;3.22;;;19.20;52.40;;;;;;5245591;26;20026;-67
2024/04/23 09:29:33;;;;;;;4.30;2.95;;;19.20;52.40;;;;;;5255681;26;20007;-67
2024/04/23 09:31:59;;;;;;;4.43;2.35;;;19.20;52.40;;;;;;5256150;26;20526;-68
2024/04/23 09:34:26;;;;;;;3.60;2.33;;;19.20;52.40;;;;;;5253443;26;20007;-68
2024/04/23 09:36:51;;;;;;;6.15;2.17;;;19.20;52.30;;;;;;5257543;26;20014;-69
2024/04/23 09:39:17;;;;;;;3.70;2.60;;;19.20;52.40;;;;;;5258600;26;20072;-69
2024/04/23 09:41:57;;;;;;;8.40;2.85;;;19.20;52.30;;;;;;5252158;26;20013;-69
2024/04/23 09:44:24;;;;;;;5.75;2.47;;;19.20;52.40;;;;;;5242057;26;20021;-69
2024/04/23 09:46:49;;;;;;;4.97;2.53;;;19.20;52.20;;;;;;5252332;26;20006;-69
2024/04/23 09:49:19;;;;;;;5.18;2.75;;;19.20;52.30;;;;;;5257302;26;20578;-69
2024/04/23 09:51:44;;;;;;;4.32;2.10;;;19.20;52.20;;;;;;5251155;26;20014;-68
2024/04/23 09:54:10;;;;;;;5.40;2.42;;;19.20;52.10;;;;;;5258272;26;20382;-69
2024/04/23 09:56:35;;;;;;;4.00;2.45;;;19.30;52.20;;;;;;5261085;26;20002;-68
2024/04/23 09:59:01;;;;;;;3.90;2.05;;;19.20;52.10;;;;;;5258464;26;20010;-69
2024/04/23 10:01:27;;;;;;;4.43;2.08;;;19.30;52.10;;;;;;5249835;26;20457;-69
2024/04/23 10:03:55;;;;;;;3.67;1.77;;;19.30;52.10;;;;;;5257018;26;20003;-69
2024/04/23 10:06:23;;;;;;;4.35;1.95;;;19.20;52.00;;;;;;5253847;26;20036;-69
2024/04/23 10:09:06;;;;;;;3.60;1.95;;;19.30;52.20;;;;;;5259196;26;20017;-71
2024/04/23 10:11:49;;;;;;;2.47;2.17;;;19.20;52.10;;;;;;5251490;26;20337;-69
2024/04/23 10:14:23;;;;;;;3.90;2.17;;;19.30;52.10;;;;;;5256324;26;20072;-68
2024/04/23 10:17:00;;;;;;;6.97;3.03;;;19.30;52.60;;;;;;5249972;26;20017;-70
2024/04/23 10:19:29;;;;;;;4.43;1.80;;;19.30;52.10;;;;;;5247321;26;20006;-69
2024/04/23 10:21:55;;;;;;;5.38;2.13;;;19.30;52.10;;;;;;5253987;26;20055;-69
2024/04/23 10:24:22;;;;;;;3.42;1.90;;;19.30;52.10;;;;;;5256429;26;20454;-69
2024/04/23 10:26:48;;;;;;;6.85;2.65;;;19.40;52.20;;;;;;5260158;26;20684;-69
2024/04/23 10:29:15;;;;;;;7.28;2.15;;;19.40;52.20;;;;;;5265099;26;20002;-69
2024/04/23 10:31:41;;;;;;;5.75;2.05;;;19.40;52.30;;;;;;5251059;26;20003;-69
2024/04/23 10:34:08;;;;;;;4.53;2.25;;;19.40;53.00;;;;;;5270343;26;20441;-69
2024/04/23 10:36:38;;;;;;;5.15;2.40;;;19.40;52.40;;;;;;5259494;26;20092;-68
2024/04/23 10:39:06;;;;;;;3.15;2.20;;;19.30;53.00;;;;;;5263269;26;20009;-69
2024/04/23 10:41:33;;;;;;;3.80;2.10;;;19.40;52.40;;;;;;5252230;26;20014;-69
2024/04/23 10:44:01;;;;;;;6.15;2.25;;;19.40;52.40;;;;;;5262373;26;20025;-68
2024/04/23 10:46:27;;;;;;;3.78;2.30;;;19.40;52.30;;;;;;5229685;26;20007;-68
2024/04/23 10:48:56;;;;;;;5.97;2.40;;;19.40;52.40;;;;;;5249363;26;20009;-69
2024/04/23 10:51:25;;;;;;;7.80;1.90;;;19.30;52.30;;;;;;5263150;26;20159;-69
2024/04/23 10:53:51;;;;;;;3.72;1.70;;;19.30;52.50;;;;;;5250277;26;20010;-67
2024/04/23 10:56:24;;;;;;;4.03;1.75;;;19.30;52.40;;;;;;5256453;26;20333;-69
2024/04/23 10:59:03;;;;;;;4.95;1.52;;;19.40;52.50;;;;;;5260524;26;20022;-69
2024/04/23 11:01:28;;;;;;;5.60;1.73;;;19.40;52.50;;;;;;5259503;26;20098;-69
2024/04/23 11:04:02;;;;;;;2.40;1.70;;;19.40;52.50;;;;;;5258886;26;20460;-69
2024/04/23 11:06:38;;;;;;;4.47;1.67;;;19.40;52.40;;;;;;5257139;26;19998;-68
2024/04/23 11:09:19;;;;;;;4.15;1.60;;;19.40;52.50;;;;;;5262951;26;20094;-69
2024/04/23 11:12:17;;;;;;;3.20;1.42;;;19.30;52.50;;;;;;5268603;26;20002;-68
2024/04/23 11:14:42;;;;;;;2.88;2.00;;;19.40;52.50;;;;;;5264852;26;20018;-68
2024/04/23 11:17:08;;;;;;;4.90;1.65;;;19.30;52.50;;;;;;5262573;26;20006;-69
2024/04/23 11:19:41;;;;;;;3.60;1.65;;;19.30;52.50;;;;;;5261566;26;20386;-68
2024/04/23 11:22:13;;;;;;;2.60;1.60;;;19.40;52.60;;;;;;5269328;26;20445;-68
2024/04/23 11:24:44;;;;;;;2.80;1.55;;;19.30;52.70;;;;;;5261123;26;20006;-69
2024/04/23 11:27:14;;;;;;;3.35;1.50;;;19.40;52.70;;;;;;5270533;26;20012;-69
2024/04/23 11:29:44;;;;;;;2.35;1.55;;;19.40;52.70;;;;;;5238757;26;24910;-69
2024/04/23 11:32:11;;;;;;;3.47;1.60;;;19.40;52.80;;;;;;5267712;26;20013;-69
2024/04/23 11:34:38;;;;;;;5.25;1.80;;;19.40;53.50;;;;;;5262316;26;20014;-68
2024/04/23 11:37:04;;;;;;;2.92;1.30;;;19.30;52.90;;;;;;5234588;26;20010;-69
2024/04/23 11:39:31;;;;;;;3.30;1.38;;;19.40;53.00;;;;;;5256270;26;20460;-69
2024/04/23 11:41:57;;;;;;;3.85;1.42;;;19.40;53.00;;;;;;5255677;26;20006;-69
2024/04/23 11:44:23;;;;;;;3.10;1.30;;;19.40;53.10;;;;;;5265134;26;20012;-69
2024/04/23 11:46:54;;;;;;;4.68;1.63;;;19.40;53.10;;;;;;5255570;26;20003;-69
2024/04/23 11:49:20;;;;;;;3.55;1.30;;;19.30;53.00;;;;;;5254921;26;20012;-69
2024/04/23 11:51:50;;;;;;;4.30;1.25;;;19.30;53.10;;;;;;5255072;26;20007;-68
2024/04/23 11:54:16;;;;;;;4.95;1.75;;;19.30;53.00;;;;;;5260896;26;20462;-69
2024/04/23 11:56:42;;;;;;;7.18;1.27;;;19.30;52.90;;;;;;5259754;26;20051;-69
2024/04/23 11:59:08;;;;;;;5.43;1.10;;;19.30;52.90;;;;;;5258811;26;20457;-68
2024/04/23 12:01:35;;;;;;;3.85;1.33;;;19.30;52.90;;;;;;5260052;26;20003;-69
2024/04/23 12:04:01;;;;;;;2.47;1.10;;;19.30;52.80;;;;;;5261028;26;20059;-68
2024/04/23 12:06:28;;;;;;;2.00;1.20;;;19.40;52.90;;;;;;5261171;26;20508;-69
2024/04/23 12:08:54;;;;;;;2.00;1.30;;;19.40;52.80;;;;;;5264059;26;20002;-69
2024/04/23 12:11:20;;;;;;;3.38;1.05;;;19.40;52.70;;;;;;5259170;26;20002;-69
2024/04/23 12:13:49;;;;;;;3.83;1.40;;;19.40;52.70;;;;;;5237223;26;20038;-68
2024/04/23 12:16:15;;;;;;;2.00;1.05;;;19.40;52.70;;;;;;5259739;26;20461;-68
2024/04/23 12:18:41;;;;;;;5.57;1.55;;;19.40;52.70;;;;;;5253671;26;20002;-69
2024/04/23 12:21:07;;;;;;;3.17;1.30;;;19.40;52.70;;;;;;5270502;26;20003;-69
2024/04/23 12:23:33;;;;;;;2.38;1.10;;;19.40;52.70;;;;;;5262819;26;20524;-69
2024/04/23 12:25:59;;;;;;;2.20;1.15;;;19.40;52.70;;;;;;5260616;26;20058;-69
2024/04/23 12:28:25;;;;;;;2.42;1.27;;;19.40;52.70;;;;;;5266574;26;20052;-69
2024/04/23 12:30:51;;;;;;;2.75;1.17;;;19.40;52.70;;;;;;5264521;26;20015;-69
2024/04/23 12:33:16;;;;;;;1.95;1.00;;;19.40;52.70;;;;;;5271385;26;20436;-68
2024/04/23 12:35:43;;;;;;;3.33;1.13;;;19.40;52.70;;;;;;5267999;26;20014;-67
2024/04/23 12:38:09;;;;;;;1.13;0.80;;;19.50;52.70;;;;;;5270410;26;20451;-68
2024/04/23 12:40:37;;;;;;;4.82;1.67;;;19.50;52.70;;;;;;5268342;26;20018;-69
2024/04/23 12:43:07;;;;;;;1.42;1.10;;;19.60;52.80;;;;;;5257898;26;20014;-68
2024/04/23 12:45:33;;;;;;;2.20;1.05;;;19.60;52.80;;;;;;5263546;26;20005;-67
2024/04/23 12:47:59;;;;;;;3.25;1.23;;;19.70;52.90;;;;;;5263513;26;20036;-68
2024/04/23 12:50:25;;;;;;;4.22;1.27;;;19.70;52.90;;;;;;5263236;26;20013;-69